createdAt,value
2019-01-24T00:02:24.571Z,78.70
2019-01-24T00:04:54.080Z,79.20
2019-01-24T00:07:23.686Z,79.50
2019-01-24T00:09:53.193Z,79.60
2019-01-24T00:12:22.703Z,79.50
2019-01-24T00:14:52.268Z,80.10
2019-01-24T00:17:21.920Z,80.20
2019-01-24T00:19:51.478Z,80.20
2019-01-24T00:22:20.919Z,79.90
2019-01-24T00:24:50.359Z,79.30
2019-01-24T00:27:20.113Z,79.40
2019-01-24T00:29:49.700Z,79.70
2019-01-24T00:32:19.302Z,80.10
2019-01-24T00:34:49.145Z,80.30
2019-01-24T00:37:20.604Z,79.80
2019-01-24T00:39:50.104Z,79.20
2019-01-24T00:42:19.622Z,79.40
2019-01-24T00:44:49.098Z,79.40
2019-01-24T00:47:18.695Z,79.10
2019-01-24T00:49:48.245Z,79.70
2019-01-24T00:52:18.066Z,80.10
2019-01-24T00:54:51.860Z,80.20
2019-01-24T00:57:21.430Z,79.40
2019-01-24T00:59:51.027Z,79.10
2019-01-24T01:02:22.106Z,78.90
2019-01-24T01:04:51.867Z,78.60
2019-01-24T01:07:21.398Z,78.70
2019-01-24T01:09:50.841Z,78.60
2019-01-24T01:12:20.596Z,78.20
2019-01-24T01:14:50.107Z,78.10
2019-01-24T01:17:19.800Z,78.40
2019-01-24T01:19:49.228Z,78.70
2019-01-24T01:22:18.674Z,79.30
2019-01-24T01:24:48.166Z,78.90
2019-01-24T01:27:17.745Z,78.60
2019-01-24T01:29:47.186Z,78.20
2019-01-24T01:32:16.677Z,78.80
2019-01-24T01:34:46.351Z,78.50
2019-01-24T01:37:15.876Z,77.70
2019-01-24T01:39:45.283Z,77.40
2019-01-24T01:42:14.875Z,78.40
2019-01-24T01:44:45.583Z,78.20
2019-01-24T01:47:19.118Z,78.10
2019-01-24T01:49:48.779Z,78.40
2019-01-24T01:52:18.199Z,78.10
2019-01-24T01:54:47.631Z,78.40
2019-01-24T01:57:18.351Z,78.70
2019-01-24T01:59:50.753Z,78.90
2019-01-24T02:02:25.588Z,79.20
2019-01-24T02:04:55.004Z,79.10
2019-01-24T02:07:30.937Z,78.90
2019-01-24T02:10:07.885Z,79.00
2019-01-24T02:12:37.419Z,79.50
2019-01-24T02:15:08.039Z,79.80
2019-01-24T02:17:39.255Z,79.40
2019-01-24T02:20:11.877Z,79.20
2019-01-24T02:22:57.362Z,78.80
2019-01-24T02:25:31.925Z,79.40
2019-01-24T02:28:11.850Z,78.60
2019-01-24T02:30:45.295Z,79.50
2019-01-24T02:33:17.755Z,79.30
2019-01-24T02:35:50.104Z,79.50
2019-01-24T02:38:22.191Z,79.20
2019-01-24T02:40:56.403Z,79.40
2019-01-24T02:43:25.990Z,79.40
2019-01-24T02:45:58.334Z,80.00
2019-01-24T02:48:35.415Z,79.50
2019-01-24T02:51:09.321Z,80.00
2019-01-24T02:53:43.860Z,80.40
2019-01-24T02:56:13.333Z,80.90
2019-01-24T02:58:49.499Z,81.20
2019-01-24T03:01:24.952Z,80.60
2019-01-24T03:03:54.587Z,80.10
2019-01-24T03:06:25.202Z,79.80
2019-01-24T03:08:59.568Z,79.10
2019-01-24T03:11:31.893Z,79.50
2019-01-24T03:14:05.082Z,80.00
2019-01-24T03:16:34.793Z,79.70
2019-01-24T03:19:11.875Z,80.00
2019-01-24T03:21:44.747Z,79.50
2019-01-24T03:24:14.211Z,79.80
2019-01-24T03:26:43.654Z,79.20
2019-01-24T03:29:18.758Z,79.80
2019-01-24T03:31:49.740Z,79.90
2019-01-24T03:34:19.275Z,79.70
2019-01-24T03:37:01.527Z,80.20
2019-01-24T03:39:32.177Z,80.10
2019-01-24T03:42:08.686Z,79.90
2019-01-24T03:44:38.202Z,79.90
2019-01-24T03:47:07.645Z,79.40
2019-01-24T03:49:40.207Z,80.00
2019-01-24T03:52:12.637Z,80.40
2019-01-24T03:54:42.126Z,80.10
2019-01-24T03:57:11.671Z,78.70
2019-01-24T03:59:45.015Z,79.00
2019-01-24T04:02:14.804Z,79.80
2019-01-24T04:04:44.297Z,80.00
2019-01-24T04:07:16.873Z,79.70
2019-01-24T04:09:46.351Z,79.50
2019-01-24T04:12:15.840Z,78.40
2019-01-24T04:14:45.521Z,78.10
2019-01-24T04:17:14.924Z,78.20
2019-01-24T04:19:44.392Z,77.80
2019-01-24T04:22:13.944Z,77.60
2019-01-24T04:24:43.454Z,76.60
2019-01-24T04:27:12.861Z,77.70
2019-01-24T04:29:42.251Z,78.50
2019-01-24T04:32:11.725Z,78.80
2019-01-24T04:34:41.221Z,78.60
2019-01-24T04:37:10.714Z,78.30
2019-01-24T04:39:40.465Z,78.60
2019-01-24T04:42:09.873Z,78.80
2019-01-24T04:44:39.365Z,78.90
2019-01-24T04:47:08.770Z,79.10
2019-01-24T04:49:38.322Z,79.60
2019-01-24T04:52:07.881Z,79.50
2019-01-24T04:54:37.382Z,79.40
2019-01-24T04:57:06.786Z,78.90
2019-01-24T04:59:36.275Z,78.10
2019-01-24T05:02:05.804Z,78.10
2019-01-24T05:04:35.179Z,77.60
2019-01-24T05:07:04.622Z,78.30
2019-01-24T05:09:34.256Z,78.40
2019-01-24T05:12:03.746Z,78.20
2019-01-24T05:14:33.142Z,78.50
2019-01-24T05:17:02.638Z,78.90
2019-01-24T05:19:35.114Z,78.90
2019-01-24T05:22:04.644Z,79.00
2019-01-24T05:24:34.047Z,79.10
2019-01-24T05:27:03.665Z,79.20
2019-01-24T05:29:33.170Z,79.00
2019-01-24T05:32:05.447Z,79.00
2019-01-24T05:34:37.000Z,78.60
2019-01-24T05:37:06.461Z,78.40
2019-01-24T05:39:35.858Z,78.00
2019-01-24T05:42:05.306Z,77.80
2019-01-24T05:44:36.110Z,77.90
2019-01-24T05:47:05.595Z,77.80
2019-01-24T05:49:35.043Z,78.00
2019-01-24T05:52:04.612Z,78.40
2019-01-24T05:54:34.022Z,78.90
2019-01-24T05:57:03.547Z,78.20
2019-01-24T05:59:32.979Z,78.70
2019-01-24T06:02:02.622Z,79.30
2019-01-24T06:04:32.145Z,78.50
2019-01-24T06:07:01.812Z,78.30
2019-01-24T06:09:31.352Z,78.30
2019-01-24T06:12:00.849Z,78.40
2019-01-24T06:14:30.457Z,78.90
2019-01-24T06:17:00.141Z,78.40
2019-01-24T06:19:31.129Z,79.10
2019-01-24T06:22:00.530Z,78.90
2019-01-24T06:24:30.186Z,79.20
2019-01-24T06:26:59.672Z,79.20
2019-01-24T06:29:29.123Z,79.20
2019-01-24T06:31:58.850Z,79.30
2019-01-24T06:34:28.321Z,79.60
2019-01-24T06:36:57.857Z,79.60
2019-01-24T06:39:27.299Z,80.20
2019-01-24T06:41:56.820Z,80.60
2019-01-24T06:44:26.313Z,80.60
2019-01-24T06:46:56.722Z,80.90
2019-01-24T06:49:26.247Z,81.10
2019-01-24T06:51:55.763Z,81.20
2019-01-24T06:54:25.255Z,81.00
2019-01-24T06:56:54.724Z,80.70
2019-01-24T06:59:24.314Z,80.50
2019-01-24T07:01:53.845Z,80.70
2019-01-24T07:04:27.051Z,81.00
2019-01-24T07:06:56.927Z,81.50
2019-01-24T07:09:26.371Z,81.50
2019-01-24T07:11:55.773Z,81.70
2019-01-24T07:14:25.307Z,81.70
2019-01-24T07:16:54.786Z,81.40
2019-01-24T07:19:24.253Z,81.00
2019-01-24T07:21:53.694Z,81.10
2019-01-24T07:24:23.262Z,80.40
2019-01-24T07:26:52.687Z,80.80
2019-01-24T07:29:22.127Z,80.60
2019-01-24T07:31:51.694Z,79.50
2019-01-24T07:34:24.288Z,79.50
2019-01-24T07:36:53.763Z,79.40
2019-01-24T07:39:26.318Z,80.00
2019-01-24T07:41:55.992Z,80.10
2019-01-24T07:44:25.517Z,80.00
2019-01-24T07:46:55.238Z,79.20
2019-01-24T07:49:24.649Z,78.80
2019-01-24T07:51:54.459Z,79.20
2019-01-24T07:54:23.906Z,79.90
2019-01-24T07:56:53.381Z,81.10
2019-01-24T07:59:24.140Z,81.30
2019-01-24T08:01:53.600Z,81.30
2019-01-24T08:04:22.972Z,80.80
2019-01-24T08:06:52.685Z,81.10
2019-01-24T08:09:22.117Z,81.90
2019-01-24T08:11:51.696Z,83.10
2019-01-24T08:14:21.235Z,83.30
2019-01-24T08:16:51.034Z,83.40
2019-01-24T08:19:21.919Z,84.00
2019-01-24T08:21:51.393Z,84.00
2019-01-24T08:24:22.586Z,84.60
2019-01-24T08:26:52.288Z,84.50
2019-01-24T08:29:21.917Z,84.40
2019-01-24T08:31:51.490Z,84.90
2019-01-24T08:34:21.029Z,85.20
2019-01-24T08:36:50.430Z,85.00
2019-01-24T08:39:19.942Z,85.50
2019-01-24T08:41:49.695Z,85.90
2019-01-24T08:44:19.176Z,86.10
2019-01-24T08:46:48.669Z,85.80
2019-01-24T08:49:18.253Z,85.70
2019-01-24T08:51:47.692Z,85.10
2019-01-24T08:54:17.243Z,84.60
2019-01-24T08:56:47.127Z,84.50
2019-01-24T08:59:16.633Z,84.30
2019-01-24T09:01:46.324Z,84.20
2019-01-24T09:04:15.793Z,85.30
2019-01-24T09:06:45.204Z,85.10
2019-01-24T09:09:14.786Z,85.20
2019-01-24T09:11:46.265Z,85.10
2019-01-24T09:14:15.759Z,85.20
2019-01-24T09:16:45.165Z,85.40
2019-01-24T09:19:14.847Z,85.20
2019-01-24T09:21:47.077Z,85.60
2019-01-24T09:24:20.196Z,85.50
2019-01-24T09:26:49.686Z,85.40
2019-01-24T09:29:19.194Z,85.30
2019-01-24T09:31:48.740Z,84.70
2019-01-24T09:34:18.179Z,84.50
2019-01-24T09:36:47.556Z,83.40
2019-01-24T09:39:16.981Z,83.40
2019-01-24T09:41:46.678Z,82.60
2019-01-24T09:44:16.155Z,81.20
2019-01-24T09:46:45.662Z,79.60
2019-01-24T09:49:15.337Z,79.50
2019-01-24T09:51:44.927Z,79.20
2019-01-24T09:54:14.832Z,79.70
2019-01-24T09:56:46.166Z,80.10
2019-01-24T09:59:17.802Z,80.70
2019-01-24T10:01:47.371Z,80.70
2019-01-24T10:04:17.012Z,81.20
2019-01-24T10:06:46.643Z,81.30
2019-01-24T10:09:16.253Z,82.20
2019-01-24T10:11:45.778Z,82.40
2019-01-24T10:14:15.325Z,82.40
2019-01-24T10:16:44.815Z,82.70
2019-01-24T10:19:14.584Z,83.00
2019-01-24T10:21:44.269Z,82.70
2019-01-24T10:24:13.942Z,83.20
2019-01-24T10:26:43.553Z,83.00
2019-01-24T10:29:13.128Z,83.00
2019-01-24T10:31:42.876Z,82.50
2019-01-24T10:34:12.523Z,82.50
2019-01-24T10:36:43.133Z,82.40
2019-01-24T10:39:12.877Z,82.30
2019-01-24T10:41:42.751Z,82.30
2019-01-24T10:44:12.452Z,81.10
2019-01-24T10:46:43.120Z,81.60
2019-01-24T10:49:12.498Z,81.10
2019-01-24T10:51:41.956Z,81.70
2019-01-24T10:54:11.694Z,80.90
2019-01-24T10:56:41.093Z,80.80
2019-01-24T10:59:14.330Z,80.90
2019-01-24T11:01:43.980Z,79.80
2019-01-24T11:04:13.448Z,79.60
2019-01-24T11:06:42.910Z,79.40
2019-01-24T11:09:12.795Z,79.50
2019-01-24T11:11:43.830Z,79.50
2019-01-24T11:14:13.301Z,78.90
2019-01-24T11:16:42.723Z,79.20
2019-01-24T11:19:13.766Z,79.20
2019-01-24T11:21:44.587Z,78.60
2019-01-24T11:24:14.226Z,78.20
2019-01-24T11:26:43.664Z,77.90
2019-01-24T11:29:13.109Z,75.90
2019-01-24T11:31:44.882Z,76.90
2019-01-24T11:34:15.904Z,76.00
2019-01-24T11:36:45.465Z,76.40
2019-01-24T11:39:19.111Z,76.80
2019-01-24T11:41:48.653Z,76.50
2019-01-24T11:44:21.042Z,78.00
2019-01-24T11:46:51.791Z,76.80
2019-01-24T11:49:21.210Z,75.40
2019-01-24T11:51:50.828Z,76.40
2019-01-24T11:54:22.468Z,77.30
2019-01-24T11:56:51.912Z,77.50
2019-01-24T11:59:21.266Z,77.50
2019-01-24T12:01:50.789Z,77.60
2019-01-24T12:04:20.155Z,77.90
2019-01-24T12:06:49.533Z,76.50
2019-01-24T12:09:18.919Z,77.00
2019-01-24T12:11:50.209Z,75.80
2019-01-24T12:14:19.636Z,75.30
2019-01-24T12:16:49.128Z,76.40
2019-01-24T12:19:18.474Z,77.00
2019-01-24T12:21:48.034Z,76.70
2019-01-24T12:24:17.398Z,76.70
2019-01-24T12:26:46.933Z,75.80
2019-01-24T12:29:16.306Z,76.40
2019-01-24T12:31:45.752Z,76.40
2019-01-24T12:34:15.246Z,75.20
2019-01-24T12:36:44.924Z,74.70
2019-01-24T12:39:18.947Z,75.50
2019-01-24T12:41:48.434Z,74.60
2019-01-24T12:44:17.810Z,76.20
2019-01-24T12:46:47.273Z,75.70
2019-01-24T12:49:16.746Z,75.00
2019-01-24T12:51:46.079Z,74.20
2019-01-24T12:54:15.484Z,74.80
2019-01-24T12:56:44.905Z,75.30
2019-01-24T12:59:14.605Z,75.00
2019-01-24T13:01:43.966Z,73.20
2019-01-24T13:04:13.415Z,73.90
2019-01-24T13:06:42.873Z,74.00
2019-01-24T13:09:12.815Z,73.00
2019-01-24T13:11:42.280Z,73.10
2019-01-24T13:14:12.018Z,72.60
2019-01-24T13:16:41.452Z,73.10
2019-01-24T13:19:10.841Z,72.80
2019-01-24T13:21:40.672Z,72.90
2019-01-24T13:24:10.157Z,72.40
2019-01-24T13:26:39.593Z,72.80
2019-01-24T13:29:10.779Z,73.10
2019-01-24T13:31:40.263Z,72.90
2019-01-24T13:34:09.670Z,72.70
2019-01-24T13:36:39.049Z,73.30
2019-01-24T13:39:11.393Z,72.70
2019-01-24T13:41:42.636Z,71.10
2019-01-24T13:44:12.082Z,71.40
2019-01-24T13:46:43.414Z,71.70
2019-01-24T13:49:12.801Z,72.10
2019-01-24T13:51:42.163Z,71.80
2019-01-24T13:54:11.635Z,71.70
2019-01-24T13:56:41.072Z,72.00
2019-01-24T13:59:10.609Z,71.90
2019-01-24T14:01:40.069Z,72.00
2019-01-24T14:04:32.002Z,71.80
2019-01-24T14:07:01.702Z,72.10
2019-01-24T14:09:31.132Z,72.70
2019-01-24T14:12:00.572Z,73.20
2019-01-24T14:14:30.253Z,72.80
2019-01-24T14:16:59.709Z,72.00
2019-01-24T14:19:29.070Z,71.70
2019-01-24T14:21:58.470Z,72.40
2019-01-24T14:24:28.003Z,71.80
2019-01-24T14:26:57.497Z,71.80
2019-01-24T14:29:26.912Z,72.40
2019-01-24T14:31:56.599Z,72.10
2019-01-24T14:34:26.056Z,72.70
2019-01-24T14:36:58.961Z,72.40
2019-01-24T14:39:28.458Z,72.40
2019-01-24T14:41:57.977Z,72.70
2019-01-24T14:44:29.491Z,72.40
2019-01-24T14:46:59.017Z,72.00
2019-01-24T14:49:28.514Z,72.40
2019-01-24T14:51:58.042Z,72.40
2019-01-24T14:54:27.680Z,72.60
2019-01-24T14:56:57.092Z,72.70
2019-01-24T14:59:26.546Z,72.80
2019-01-24T15:01:56.099Z,73.10
2019-01-24T15:04:25.564Z,73.00
2019-01-24T15:06:54.974Z,72.90
2019-01-24T15:09:24.403Z,72.90
2019-01-24T15:11:54.084Z,73.00
2019-01-24T15:14:26.326Z,73.60
2019-01-24T15:16:56.718Z,74.00
2019-01-24T15:19:26.160Z,74.10
2019-01-24T15:21:55.796Z,74.70
2019-01-24T15:24:25.245Z,74.40
2019-01-24T15:26:54.665Z,73.90
2019-01-24T15:29:24.062Z,73.00
2019-01-24T15:31:53.982Z,73.50
2019-01-24T15:34:24.764Z,73.60
2019-01-24T15:36:54.166Z,73.50
2019-01-24T15:39:23.822Z,72.30
2019-01-24T15:41:53.509Z,72.30
2019-01-24T15:44:22.957Z,72.30
2019-01-24T15:46:52.314Z,72.20
2019-01-24T15:49:21.720Z,71.80
2019-01-24T15:51:51.143Z,72.80
2019-01-24T15:54:20.683Z,72.20
2019-01-24T15:56:50.065Z,72.40
2019-01-24T15:59:19.451Z,72.40
2019-01-24T16:01:48.840Z,73.00
2019-01-24T16:04:19.893Z,72.90
2019-01-24T16:06:49.635Z,72.80
2019-01-24T16:09:19.109Z,72.40
2019-01-24T16:11:48.515Z,72.10
2019-01-24T16:14:18.134Z,72.50
2019-01-24T16:16:47.939Z,72.90
2019-01-24T16:19:17.366Z,73.00
2019-01-24T16:21:46.944Z,73.50
2019-01-24T16:24:16.498Z,73.50
2019-01-24T16:26:49.429Z,72.60
2019-01-24T16:29:18.847Z,72.40
2019-01-24T16:31:48.531Z,73.10
2019-01-24T16:34:17.934Z,73.00
2019-01-24T16:36:47.347Z,72.30
2019-01-24T16:39:16.771Z,72.20
2019-01-24T16:41:46.505Z,72.40
2019-01-24T16:44:15.968Z,72.10
2019-01-24T16:46:45.486Z,72.00
2019-01-24T16:49:15.126Z,72.70
2019-01-24T16:51:44.959Z,72.80
2019-01-24T16:54:16.174Z,72.70
2019-01-24T16:56:45.745Z,72.50
2019-01-24T16:59:15.108Z,71.60
2019-01-24T17:01:44.657Z,71.50
2019-01-24T17:04:14.287Z,71.70
2019-01-24T17:06:43.745Z,70.00
2019-01-24T17:09:13.203Z,70.80
2019-01-24T17:11:42.967Z,70.70
2019-01-24T17:14:12.598Z,71.70
2019-01-24T17:16:42.061Z,71.50
2019-01-24T17:19:11.843Z,71.30
2019-01-24T17:21:41.315Z,70.10
2019-01-24T17:24:11.067Z,70.40
2019-01-24T17:26:40.695Z,70.80
2019-01-24T17:29:10.468Z,71.00
2019-01-24T17:31:39.966Z,70.20
2019-01-24T17:34:09.559Z,70.80
2019-01-24T17:36:39.297Z,70.00
2019-01-24T17:39:11.332Z,70.30
2019-01-24T17:41:40.727Z,70.50
2019-01-24T17:44:10.334Z,70.70
2019-01-24T17:46:39.890Z,70.40
2019-01-24T17:49:10.477Z,70.90
2019-01-24T17:51:39.940Z,71.90
2019-01-24T17:54:09.599Z,71.60
2019-01-24T17:56:41.801Z,71.10
2019-01-24T17:59:11.701Z,71.50
2019-01-24T18:01:41.238Z,71.70
2019-01-24T18:04:10.815Z,71.60
2019-01-24T18:06:40.368Z,70.80
2019-01-24T18:09:09.853Z,69.50
2019-01-24T18:11:39.355Z,70.80
2019-01-24T18:14:08.958Z,69.80
2019-01-24T18:16:38.577Z,70.00
2019-01-24T18:19:07.992Z,70.10
2019-01-24T18:21:37.429Z,69.70
2019-01-24T18:24:07.096Z,70.60
2019-01-24T18:26:36.697Z,69.10
2019-01-24T18:29:06.655Z,69.50
2019-01-24T18:31:36.160Z,70.10
2019-01-24T18:34:05.888Z,70.40
2019-01-24T18:36:35.269Z,69.70
2019-01-24T18:39:09.305Z,70.20
2019-01-24T18:41:38.758Z,70.50
2019-01-24T18:44:08.572Z,70.60
2019-01-24T18:46:38.148Z,70.60
2019-01-24T18:49:08.285Z,70.40
2019-01-24T18:51:37.800Z,70.90
2019-01-24T18:54:07.283Z,70.80
2019-01-24T18:56:36.786Z,71.10
2019-01-24T18:59:06.207Z,71.10
2019-01-24T19:01:35.774Z,71.30
2019-01-24T19:04:05.972Z,70.80
2019-01-24T19:06:35.605Z,71.10
2019-01-24T19:09:08.716Z,69.50
2019-01-24T19:11:38.185Z,71.00
2019-01-24T19:14:08.280Z,71.10
2019-01-24T19:16:40.221Z,70.20
2019-01-24T19:19:09.802Z,71.10
2019-01-24T19:21:39.295Z,70.60
2019-01-24T19:24:09.019Z,70.50
2019-01-24T19:26:38.778Z,69.80
2019-01-24T19:29:08.454Z,70.10
2019-01-24T19:31:38.038Z,69.50
2019-01-24T19:34:07.955Z,69.60
2019-01-24T19:36:37.450Z,70.50
2019-01-24T19:39:09.613Z,70.10
2019-01-24T19:41:39.202Z,69.60
2019-01-24T19:44:15.433Z,70.50
2019-01-24T19:46:40.070Z,70.80
2019-01-24T19:49:10.117Z,71.10
2019-01-24T19:51:42.127Z,71.00
2019-01-24T19:54:18.131Z,71.70
2019-01-24T19:56:47.764Z,71.60
2019-01-24T19:59:17.755Z,71.40
2019-01-24T20:01:47.428Z,71.60
2019-01-24T20:04:17.033Z,71.60
2019-01-24T20:06:46.594Z,71.10
2019-01-24T20:09:16.498Z,69.70
2019-01-24T20:11:46.299Z,68.90
2019-01-24T20:14:16.024Z,68.70
2019-01-24T20:16:45.724Z,69.30
2019-01-24T20:19:15.218Z,69.20
2019-01-24T20:21:44.706Z,69.40
2019-01-24T20:24:15.863Z,69.90
2019-01-24T20:26:47.387Z,69.40
2019-01-24T20:29:17.206Z,69.80
2019-01-24T20:31:46.951Z,69.70
2019-01-24T20:34:17.828Z,69.50
2019-01-24T20:36:47.613Z,68.80
2019-01-24T20:39:17.287Z,68.00
2019-01-24T20:41:46.987Z,67.30
2019-01-24T20:44:16.712Z,67.80
2019-01-24T20:46:47.534Z,66.40
2019-01-24T20:49:17.098Z,65.80
2019-01-24T20:51:49.444Z,67.20
2019-01-24T20:54:20.279Z,66.90
2019-01-24T20:56:50.129Z,66.70
2019-01-24T20:59:19.927Z,65.80
2019-01-24T21:01:49.550Z,65.60
2019-01-24T21:04:19.221Z,66.20
2019-01-24T21:06:48.857Z,66.50
2019-01-24T21:09:18.640Z,66.40
2019-01-24T21:11:48.655Z,66.90
2019-01-24T21:14:18.300Z,66.70
2019-01-24T21:16:48.189Z,66.40
2019-01-24T21:19:17.617Z,66.90
2019-01-24T21:21:47.287Z,66.70
2019-01-24T21:24:16.740Z,66.30
2019-01-24T21:26:46.489Z,65.00
2019-01-24T21:29:16.058Z,65.30
2019-01-24T21:31:45.624Z,65.50
2019-01-24T21:34:15.214Z,63.90
2019-01-24T21:36:46.028Z,63.60
2019-01-24T21:39:21.982Z,64.40
2019-01-24T21:41:47.954Z,65.00
2019-01-24T21:44:17.769Z,63.30
2019-01-24T21:46:47.325Z,63.80
2019-01-24T21:49:16.914Z,63.70
2019-01-24T21:51:46.688Z,64.20
2019-01-24T21:54:16.268Z,64.40
2019-01-24T21:56:45.965Z,64.20
2019-01-24T21:59:15.622Z,63.40
2019-01-24T22:01:46.630Z,62.80
2019-01-24T22:04:16.118Z,64.10
2019-01-24T22:06:45.845Z,62.60
2019-01-24T22:09:15.545Z,62.90
2019-01-24T22:11:45.708Z,63.00
2019-01-24T22:14:15.247Z,63.40
2019-01-24T22:16:44.800Z,62.90
2019-01-24T22:19:14.433Z,63.00
2019-01-24T22:21:44.286Z,61.70
2019-01-24T22:24:13.824Z,61.90
2019-01-24T22:26:43.571Z,61.90
2019-01-24T22:29:16.364Z,60.50
2019-01-24T22:31:45.969Z,60.70
2019-01-24T22:34:16.758Z,61.30
2019-01-24T22:36:46.327Z,61.40
2019-01-24T22:39:16.016Z,62.40
2019-01-24T22:41:45.678Z,61.60
2019-01-24T22:44:15.157Z,61.90
2019-01-24T22:46:45.062Z,61.30
2019-01-24T22:49:14.589Z,61.60
2019-01-24T22:51:46.898Z,60.70
2019-01-24T22:54:16.458Z,61.30
2019-01-24T22:56:46.123Z,63.00
2019-01-24T22:59:15.625Z,64.10
2019-01-24T23:01:51.541Z,64.10
2019-01-24T23:04:25.360Z,64.40
2019-01-24T23:06:54.854Z,63.80
2019-01-24T23:09:26.675Z,64.20
2019-01-24T23:11:55.894Z,64.50
2019-01-24T23:14:27.632Z,64.10
2019-01-24T23:16:57.109Z,64.20
2019-01-24T23:19:26.540Z,64.90
2019-01-24T23:21:55.948Z,64.80
2019-01-24T23:24:27.241Z,65.40
2019-01-24T23:26:59.931Z,64.10
2019-01-24T23:29:29.346Z,65.20
2019-01-24T23:31:58.814Z,65.00
2019-01-24T23:34:28.189Z,64.00
2019-01-24T23:37:00.684Z,64.90
2019-01-24T23:39:33.081Z,64.10
2019-01-24T23:42:02.487Z,65.30
2019-01-24T23:44:31.907Z,65.70
2019-01-24T23:47:01.568Z,65.00
2019-01-24T23:49:31.363Z,65.10
2019-01-24T23:52:00.869Z,65.30
2019-01-24T23:54:30.301Z,64.80
2019-01-24T23:56:59.674Z,65.50
2019-01-24T23:59:30.012Z,65.80
